Time;durP1;ratioP1;P1;durP2;ratioP2;P2;SDS_P1;SDS_P2;PMS_P1;PMS_P2;Temp;Humidity;BMP_temperature;BMP_pressure;BME280_temperature;BME280_humidity;BME280_pressure;Samples;Min_cycle;Max_cycle;Signal;HPM_P1;HPM_P2
2024/03/17 00:01:41;;;;;;;17.90;10.37;;;;;;;;;;5273275;23;20828;-76
2024/03/17 00:04:07;;;;;;;21.23;10.00;;;;;;;;;;4956614;28;20424;-80
2024/03/17 00:06:33;;;;;;;17.20;9.40;;;;;;;;;;4973082;28;20425;-78
2024/03/17 00:09:00;;;;;;;26.80;11.33;;;;;;;;;;4971623;28;20979;-79
2024/03/17 00:11:26;;;;;;;20.30;10.50;;;;;;;;;;4958006;28;20447;-79
2024/03/17 00:13:52;;;;;;;26.90;12.90;;;;;;;;;;4955219;29;20421;-76
2024/03/17 00:16:18;;;;;;;28.17;12.37;;;;;;;;;;4969726;23;20583;-75
2024/03/17 00:18:46;;;;;;;27.87;14.80;;;;;;;;;;4935144;29;20422;-74
2024/03/17 00:21:13;;;;;;;28.03;13.40;;;;;;;;;;4935075;29;20464;-74
2024/03/17 00:23:39;;;;;;;23.83;12.33;;;;;;;;;;4935057;29;20429;-73
2024/03/17 00:26:05;;;;;;;31.43;12.10;;;;;;;;;;4934777;29;20801;-74
2024/03/17 00:28:31;;;;;;;21.70;12.10;;;;;;;;;;4917518;29;20485;-73
2024/03/17 00:30:57;;;;;;;25.57;12.23;;;;;;;;;;4935050;29;20978;-73
2024/03/17 00:33:24;;;;;;;27.27;13.63;;;;;;;;;;4934845;29;20909;-73
2024/03/17 00:35:50;;;;;;;29.73;13.93;;;;;;;;;;4929749;29;20444;-76
2024/03/17 00:38:16;;;;;;;29.50;14.37;;;;;;;;;;4917273;29;20430;-73
2024/03/17 00:40:41;;;;;;;34.00;15.30;;;;;;;;;;4916231;29;20470;-74
2024/03/17 00:43:07;;;;;;;23.70;11.97;;;;;;;;;;4899561;29;20426;-74
2024/03/17 00:45:34;;;;;;;26.10;11.70;;;;;;;;;;4929376;29;20898;-74
2024/03/17 00:48:00;;;;;;;24.87;12.30;;;;;;;;;;4934720;29;20997;-74
2024/03/17 00:50:26;;;;;;;26.60;14.27;;;;;;;;;;4934951;29;20441;-74
2024/03/17 00:52:52;;;;;;;27.87;12.83;;;;;;;;;;4935104;29;20406;-74
2024/03/17 00:55:18;;;;;;;23.57;12.70;;;;;;;;;;4934844;29;20913;-74
2024/03/17 00:57:44;;;;;;;26.07;12.03;;;;;;;;;;4934788;29;20417;-74
2024/03/17 01:00:11;;;;;;;32.33;13.57;;;;;;;;;;4934510;29;20497;-74
2024/03/17 01:02:37;;;;;;;22.53;11.33;;;;;;;;;;4934817;29;20432;-74
2024/03/17 01:05:05;;;;;;;27.07;13.20;;;;;;;;;;4935276;29;20885;-73
2024/03/17 01:07:31;;;;;;;29.23;14.60;;;;;;;;;;4934576;29;20598;-74
2024/03/17 01:09:57;;;;;;;21.20;12.30;;;;;;;;;;4934897;29;20469;-74
2024/03/17 01:12:23;;;;;;;28.43;13.13;;;;;;;;;;4917906;29;20898;-74
2024/03/17 01:14:49;;;;;;;29.90;14.33;;;;;;;;;;4934954;29;20422;-74
2024/03/17 01:17:15;;;;;;;27.10;14.20;;;;;;;;;;4934423;29;20458;-74
2024/03/17 01:19:41;;;;;;;30.10;15.50;;;;;;;;;;4934870;29;20413;-74
2024/03/17 01:22:07;;;;;;;24.30;14.20;;;;;;;;;;4934825;29;20427;-73
2024/03/17 01:24:33;;;;;;;27.13;12.97;;;;;;;;;;4934891;29;20453;-74
2024/03/17 01:26:59;;;;;;;29.27;14.77;;;;;;;;;;4934547;29;20429;-74
2024/03/17 01:29:26;;;;;;;22.27;11.90;;;;;;;;;;4934773;29;20477;-73
2024/03/17 01:31:52;;;;;;;28.20;13.60;;;;;;;;;;4934580;29;20518;-74
2024/03/17 01:34:19;;;;;;;30.50;14.07;;;;;;;;;;4934759;29;20417;-74
2024/03/17 01:36:45;;;;;;;22.60;12.20;;;;;;;;;;4934430;29;20433;-73
2024/03/17 01:39:11;;;;;;;32.40;15.93;;;;;;;;;;4917639;29;20460;-73
2024/03/17 01:41:37;;;;;;;26.83;14.27;;;;;;;;;;4936534;29;20800;-73
2024/03/17 01:44:03;;;;;;;40.93;17.13;;;;;;;;;;4938255;29;20431;-74
2024/03/17 01:46:29;;;;;;;31.07;13.40;;;;;;;;;;4937834;29;21010;-74
2024/03/17 01:48:55;;;;;;;26.80;11.90;;;;;;;;;;4938158;29;20487;-73
2024/03/17 01:51:22;;;;;;;30.07;13.87;;;;;;;;;;4938240;29;20409;-74
2024/03/17 01:53:48;;;;;;;25.43;12.87;;;;;;;;;;4938172;29;20412;-73
2024/03/17 01:56:15;;;;;;;25.27;12.60;;;;;;;;;;4936319;29;20481;-74
2024/03/17 01:58:44;;;;;;;25.53;12.60;;;;;;;;;;4937851;29;20440;-74
2024/03/17 02:01:10;;;;;;;29.07;14.13;;;;;;;;;;4938083;29;20784;-74
2024/03/17 02:03:36;;;;;;;32.33;14.43;;;;;;;;;;4920493;29;20413;-74
2024/03/17 02:06:02;;;;;;;27.53;13.00;;;;;;;;;;4936640;29;20921;-73
2024/03/17 02:08:28;;;;;;;24.90;11.70;;;;;;;;;;4937822;29;20805;-74
2024/03/17 02:10:54;;;;;;;27.97;13.50;;;;;;;;;;4937781;29;20447;-74
2024/03/17 02:13:21;;;;;;;29.50;13.93;;;;;;;;;;4937780;29;20428;-74
2024/03/17 02:15:47;;;;;;;32.77;13.80;;;;;;;;;;4920086;29;20868;-74
2024/03/17 02:18:13;;;;;;;25.23;13.70;;;;;;;;;;4937838;29;20437;-74
2024/03/17 02:20:55;;;;;;;32.73;13.73;;;;;;;;;;4937754;29;20445;-73
2024/03/17 02:23:21;;;;;;;31.47;16.90;;;;;;;;;;4937562;29;20912;-73
2024/03/17 02:25:48;;;;;;;32.33;15.20;;;;;;;;;;4937282;29;20442;-73
2024/03/17 02:28:14;;;;;;;26.10;13.77;;;;;;;;;;4936794;29;20487;-74
2024/03/17 02:30:40;;;;;;;30.00;13.10;;;;;;;;;;4937208;29;20893;-72
2024/03/17 02:33:06;;;;;;;26.50;12.90;;;;;;;;;;4937588;29;20445;-72
2024/03/17 02:35:32;;;;;;;28.20;14.47;;;;;;;;;;4949656;29;20425;-73
2024/03/17 02:37:58;;;;;;;26.73;12.47;;;;;;;;;;4941944;29;20418;-72
2024/03/17 02:40:24;;;;;;;30.97;13.73;;;;;;;;;;4940311;29;20414;-73
2024/03/17 02:42:50;;;;;;;31.53;15.20;;;;;;;;;;4921400;29;20457;-73
2024/03/17 02:45:16;;;;;;;27.67;12.17;;;;;;;;;;4938221;29;20413;-73
2024/03/17 02:47:42;;;;;;;23.23;11.30;;;;;;;;;;4937173;29;20461;-73
2024/03/17 02:50:09;;;;;;;23.10;10.93;;;;;;;;;;4936080;29;20429;-73
2024/03/17 02:52:35;;;;;;;34.13;15.73;;;;;;;;;;4937091;29;20421;-73
2024/03/17 02:55:01;;;;;;;29.87;11.83;;;;;;;;;;4936844;29;20421;-73
2024/03/17 02:57:29;;;;;;;26.30;12.80;;;;;;;;;;4936922;29;20448;-73
2024/03/17 02:59:56;;;;;;;27.43;12.50;;;;;;;;;;4936736;29;20421;-72
2024/03/17 03:02:22;;;;;;;24.73;11.60;;;;;;;;;;4936888;29;20421;-72
2024/03/17 03:04:48;;;;;;;22.00;11.93;;;;;;;;;;4937004;29;20670;-72
2024/03/17 03:07:14;;;;;;;21.70;11.37;;;;;;;;;;4919235;29;20451;-74
2024/03/17 03:09:40;;;;;;;33.33;15.27;;;;;;;;;;4926741;29;20450;-73
2024/03/17 03:12:07;;;;;;;34.77;14.97;;;;;;;;;;4917640;29;20421;-73
2024/03/17 03:14:33;;;;;;;30.70;15.53;;;;;;;;;;4900791;29;20415;-73
2024/03/17 03:16:59;;;;;;;35.10;13.47;;;;;;;;;;4917362;29;20510;-73
2024/03/17 03:19:26;;;;;;;25.43;12.03;;;;;;;;;;4925204;29;20422;-73
2024/03/17 03:21:52;;;;;;;31.50;13.77;;;;;;;;;;4936454;29;20465;-73
2024/03/17 03:24:18;;;;;;;28.33;13.70;;;;;;;;;;4936341;29;20461;-73
2024/03/17 03:26:44;;;;;;;25.10;12.07;;;;;;;;;;4936153;29;20442;-73
2024/03/17 03:29:10;;;;;;;24.80;11.30;;;;;;;;;;4931044;29;20473;-73
2024/03/17 03:31:39;;;;;;;29.33;13.93;;;;;;;;;;4917406;29;20470;-73
2024/03/17 03:34:07;;;;;;;28.33;12.10;;;;;;;;;;4917504;29;20410;-73
2024/03/17 03:36:33;;;;;;;22.03;11.37;;;;;;;;;;4917013;29;20442;-73
2024/03/17 03:38:59;;;;;;;21.43;10.90;;;;;;;;;;4933692;29;20421;-73
2024/03/17 03:41:25;;;;;;;27.90;13.33;;;;;;;;;;4936230;29;20421;-73
2024/03/17 03:43:52;;;;;;;23.53;10.83;;;;;;;;;;4936282;29;20789;-73
2024/03/17 03:46:18;;;;;;;23.70;12.13;;;;;;;;;;4918781;29;20441;-73
2024/03/17 03:48:44;;;;;;;20.03;10.70;;;;;;;;;;4934635;29;20504;-73
2024/03/17 03:51:11;;;;;;;25.43;12.70;;;;;;;;;;4917282;29;20415;-73
2024/03/17 03:53:37;;;;;;;23.00;12.10;;;;;;;;;;4917278;29;20922;-73
2024/03/17 03:56:06;;;;;;;24.40;12.10;;;;;;;;;;4916725;29;20435;-73
2024/03/17 03:58:32;;;;;;;22.27;11.00;;;;;;;;;;4916919;29;20426;-73
2024/03/17 04:00:58;;;;;;;31.03;14.60;;;;;;;;;;4935888;29;20422;-73
2024/03/17 04:03:24;;;;;;;29.00;12.17;;;;;;;;;;4935510;29;20908;-73
2024/03/17 04:05:50;;;;;;;24.40;11.20;;;;;;;;;;4935573;29;20444;-73
2024/03/17 04:08:16;;;;;;;23.20;12.17;;;;;;;;;;4935370;29;20896;-72
2024/03/17 04:10:44;;;;;;;31.73;13.73;;;;;;;;;;4919347;29;20418;-73
2024/03/17 04:13:10;;;;;;;27.30;14.37;;;;;;;;;;4916817;29;20902;-73
2024/03/17 04:15:36;;;;;;;26.23;12.03;;;;;;;;;;4899697;29;20442;-73
2024/03/17 04:18:02;;;;;;;27.50;13.20;;;;;;;;;;4916408;29;20456;-73
2024/03/17 04:20:28;;;;;;;25.93;12.97;;;;;;;;;;4914043;29;20555;-73
2024/03/17 04:22:54;;;;;;;26.70;12.00;;;;;;;;;;4935572;29;20417;-73
2024/03/17 04:25:19;;;;;;;35.37;15.73;;;;;;;;;;4935410;29;20422;-73
2024/03/17 04:27:45;;;;;;;26.23;13.13;;;;;;;;;;4935209;29;20556;-73
2024/03/17 04:30:11;;;;;;;22.07;11.63;;;;;;;;;;4933959;29;20417;-73
2024/03/17 04:32:37;;;;;;;23.30;11.20;;;;;;;;;;4935451;29;20461;-73
2024/03/17 04:35:03;;;;;;;23.00;11.37;;;;;;;;;;4935346;29;20508;-74
2024/03/17 04:37:29;;;;;;;28.80;12.70;;;;;;;;;;4934835;29;20496;-73
2024/03/17 04:39:57;;;;;;;19.27;11.00;;;;;;;;;;4935023;29;20430;-73
2024/03/17 04:42:23;;;;;;;21.17;10.87;;;;;;;;;;4935180;29;20418;-73
2024/03/17 04:44:49;;;;;;;27.97;12.87;;;;;;;;;;4935092;29;20889;-73
2024/03/17 04:47:15;;;;;;;24.67;11.30;;;;;;;;;;4935008;29;20440;-73
2024/03/17 04:49:42;;;;;;;22.73;11.63;;;;;;;;;;4935257;29;20901;-73
2024/03/17 04:52:10;;;;;;;30.10;10.70;;;;;;;;;;4935161;29;20469;-73
2024/03/17 04:54:35;;;;;;;22.40;11.03;;;;;;;;;;4935276;29;20421;-73
2024/03/17 04:57:02;;;;;;;21.70;10.73;;;;;;;;;;4932114;29;20439;-73
2024/03/17 04:59:28;;;;;;;29.10;13.20;;;;;;;;;;4915967;29;20421;-73
2024/03/17 05:01:54;;;;;;;22.33;11.07;;;;;;;;;;4915933;29;20477;-74
2024/03/17 05:04:20;;;;;;;26.77;12.93;;;;;;;;;;4916734;29;20410;-73
2024/03/17 05:06:46;;;;;;;26.87;12.77;;;;;;;;;;4934289;29;20924;-73
2024/03/17 05:09:15;;;;;;;28.13;13.27;;;;;;;;;;4935027;29;20987;-73
2024/03/17 05:11:41;;;;;;;22.37;11.77;;;;;;;;;;4934807;29;20446;-74
2024/03/17 05:14:07;;;;;;;30.93;14.50;;;;;;;;;;4934909;29;20421;-73
2024/03/17 05:16:33;;;;;;;21.23;10.70;;;;;;;;;;4936860;29;20465;-74
2024/03/17 05:18:59;;;;;;;29.20;13.27;;;;;;;;;;4938459;29;20453;-73
2024/03/17 05:21:26;;;;;;;40.20;16.03;;;;;;;;;;4938953;29;20421;-73
2024/03/17 05:23:52;;;;;;;35.20;15.70;;;;;;;;;;4938945;29;20441;-74
2024/03/17 05:26:18;;;;;;;44.40;16.50;;;;;;;;;;4938333;29;20452;-74
2024/03/17 05:28:44;;;;;;;33.10;15.17;;;;;;;;;;4938283;29;20493;-73
2024/03/17 05:31:15;;;;;;;34.37;15.80;;;;;;;;;;4938925;29;20441;-74
2024/03/17 05:33:40;;;;;;;38.37;16.80;;;;;;;;;;4944161;29;20417;-73
2024/03/17 05:36:06;;;;;;;30.93;14.53;;;;;;;;;;4928973;29;20455;-73
2024/03/17 05:38:32;;;;;;;31.13;14.40;;;;;;;;;;4943875;29;20440;-73
2024/03/17 05:41:03;;;;;;;34.03;16.30;;;;;;;;;;4943785;29;20421;-74
2024/03/17 05:43:29;;;;;;;34.47;15.00;;;;;;;;;;4935439;29;20429;-73
2024/03/17 05:45:59;;;;;;;30.10;13.70;;;;;;;;;;4957208;29;20447;-74
2024/03/17 05:48:25;;;;;;;27.87;12.23;;;;;;;;;;4957459;29;20477;-74
2024/03/17 05:50:51;;;;;;;34.57;14.73;;;;;;;;;;4952990;29;20429;-72
2024/03/17 05:53:18;;;;;;;47.93;16.30;;;;;;;;;;4946781;29;20471;-72
2024/03/17 05:55:44;;;;;;;32.43;14.17;;;;;;;;;;4942713;29;20488;-72
2024/03/17 05:58:11;;;;;;;25.47;11.73;;;;;;;;;;4941732;29;20468;-73
2024/03/17 06:00:37;;;;;;;29.23;13.20;;;;;;;;;;4939025;29;20421;-73
2024/03/17 06:03:04;;;;;;;21.07;9.87;;;;;;;;;;4938421;29;20425;-73
2024/03/17 06:05:34;;;;;;;28.40;12.80;;;;;;;;;;4937880;29;20787;-73
2024/03/17 06:08:00;;;;;;;24.40;12.20;;;;;;;;;;4928773;29;20466;-73
2024/03/17 06:10:27;;;;;;;24.47;10.87;;;;;;;;;;4931865;29;20418;-72
2024/03/17 06:12:52;;;;;;;21.97;10.10;;;;;;;;;;4938060;29;20417;-73
2024/03/17 06:15:20;;;;;;;19.40;10.57;;;;;;;;;;4937918;29;20414;-73
2024/03/17 06:17:46;;;;;;;19.30;10.20;;;;;;;;;;5157667;23;20798;-76
2024/03/17 06:20:13;;;;;;;21.80;10.30;;;;;;;;;;4937867;29;20477;-76
2024/03/17 06:22:39;;;;;;;17.47;9.50;;;;;;;;;;4937738;29;20745;-76
2024/03/17 06:25:06;;;;;;;19.30;9.50;;;;;;;;;;4937534;29;20398;-76
2024/03/17 06:27:34;;;;;;;21.47;10.83;;;;;;;;;;4936356;29;20472;-76
2024/03/17 06:30:03;;;;;;;20.87;10.60;;;;;;;;;;4937174;29;20569;-76
2024/03/17 06:32:30;;;;;;;18.07;10.50;;;;;;;;;;4937623;29;20418;-76
2024/03/17 06:34:56;;;;;;;15.17;8.30;;;;;;;;;;4937481;29;20413;-76
2024/03/17 06:37:23;;;;;;;13.00;6.70;;;;;;;;;;4919606;29;20957;-76
2024/03/17 06:39:49;;;;;;;10.77;6.03;;;;;;;;;;4937121;29;20816;-76
2024/03/17 06:42:15;;;;;;;13.23;7.47;;;;;;;;;;4937288;29;20446;-76
2024/03/17 06:44:41;;;;;;;11.40;7.23;;;;;;;;;;4936821;29;20418;-76
2024/03/17 06:47:07;;;;;;;12.80;7.13;;;;;;;;;;4936668;29;20438;-76
2024/03/17 06:49:33;;;;;;;13.50;6.83;;;;;;;;;;4946184;29;20500;-76
2024/03/17 06:51:59;;;;;;;11.40;6.80;;;;;;;;;;4940469;29;20413;-75
2024/03/17 06:54:25;;;;;;;10.93;7.27;;;;;;;;;;4937151;29;20473;-76
2024/03/17 06:56:51;;;;;;;12.40;7.10;;;;;;;;;;4937883;29;20790;-75
2024/03/17 06:59:17;;;;;;;12.30;7.07;;;;;;;;;;4920256;29;20862;-75
2024/03/17 07:01:44;;;;;;;12.77;6.97;;;;;;;;;;4928180;29;20422;-75
2024/03/17 07:04:10;;;;;;;13.03;8.00;;;;;;;;;;4938974;29;20785;-75
2024/03/17 07:06:36;;;;;;;15.10;7.80;;;;;;;;;;4936607;29;20464;-75
2024/03/17 07:09:02;;;;;;;14.33;7.10;;;;;;;;;;4921318;29;20471;-76
2024/03/17 07:11:28;;;;;;;14.13;7.80;;;;;;;;;;4920192;29;20824;-75
2024/03/17 07:13:54;;;;;;;11.70;6.73;;;;;;;;;;4944898;29;20424;-76
2024/03/17 07:16:25;;;;;;;11.20;7.23;;;;;;;;;;4939190;29;20485;-75
2024/03/17 07:18:52;;;;;;;11.60;6.90;;;;;;;;;;4936528;29;20893;-75
2024/03/17 07:21:18;;;;;;;11.53;7.67;;;;;;;;;;4935794;29;20425;-75
2024/03/17 07:23:44;;;;;;;15.83;7.70;;;;;;;;;;4936330;29;20671;-75
2024/03/17 07:26:10;;;;;;;12.90;7.33;;;;;;;;;;4936369;29;20434;-75
2024/03/17 07:28:40;;;;;;;12.33;7.83;;;;;;;;;;4936349;29;20512;-75
2024/03/17 07:31:08;;;;;;;13.63;7.97;;;;;;;;;;4935652;29;20913;-75
2024/03/17 07:33:33;;;;;;;12.67;7.90;;;;;;;;;;4916617;29;20450;-75
2024/03/17 07:36:00;;;;;;;14.30;8.10;;;;;;;;;;4916917;29;20517;-75
2024/03/17 07:38:27;;;;;;;14.73;7.80;;;;;;;;;;4916359;29;20954;-76
2024/03/17 07:41:00;;;;;;;15.63;8.93;;;;;;;;;;4917171;29;20425;-76
2024/03/17 07:43:26;;;;;;;13.10;8.30;;;;;;;;;;4936184;29;20422;-75
2024/03/17 07:46:03;;;;;;;13.17;8.60;;;;;;;;;;4935812;29;20500;-75
2024/03/17 07:48:29;;;;;;;11.37;7.50;;;;;;;;;;4935773;29;20457;-75
2024/03/17 07:50:56;;;;;;;20.00;9.20;;;;;;;;;;4918662;29;20432;-75
2024/03/17 07:53:24;;;;;;;18.10;9.70;;;;;;;;;;4917536;29;20422;-75
2024/03/17 07:55:57;;;;;;;17.60;8.30;;;;;;;;;;4916476;29;21041;-76
2024/03/17 07:58:23;;;;;;;16.50;9.27;;;;;;;;;;4916563;29;20478;-76
2024/03/17 08:00:49;;;;;;;18.10;9.93;;;;;;;;;;4916982;29;20786;-76
2024/03/17 08:03:15;;;;;;;14.23;8.90;;;;;;;;;;4934161;29;20505;-75
2024/03/17 08:05:42;;;;;;;16.77;9.23;;;;;;;;;;4935572;29;20461;-75
2024/03/17 08:08:08;;;;;;;13.27;8.63;;;;;;;;;;4935424;29;20471;-76
2024/03/17 08:10:37;;;;;;;12.80;8.17;;;;;;;;;;4935615;29;20502;-76
2024/03/17 08:13:05;;;;;;;14.63;8.97;;;;;;;;;;4935544;29;20453;-76
2024/03/17 08:15:31;;;;;;;13.00;7.40;;;;;;;;;;4918865;29;20808;-76
2024/03/17 08:17:57;;;;;;;13.40;7.40;;;;;;;;;;4935523;29;20469;-75
2024/03/17 08:20:23;;;;;;;17.20;8.90;;;;;;;;;;4934560;29;20527;-75
2024/03/17 08:22:49;;;;;;;11.73;7.60;;;;;;;;;;4935655;29;20429;-76
2024/03/17 08:25:15;;;;;;;17.27;7.73;;;;;;;;;;4935697;29;20925;-76
2024/03/17 08:27:41;;;;;;;14.17;8.00;;;;;;;;;;4934818;29;20983;-76
2024/03/17 08:30:09;;;;;;;16.70;7.67;;;;;;;;;;4935318;29;20422;-75
2024/03/17 08:32:35;;;;;;;13.50;7.60;;;;;;;;;;4934984;29;20481;-76
2024/03/17 08:35:01;;;;;;;12.73;7.17;;;;;;;;;;4934978;29;20825;-76
2024/03/17 08:37:27;;;;;;;11.90;7.07;;;;;;;;;;4934855;29;20775;-76
2024/03/17 08:39:53;;;;;;;12.80;6.27;;;;;;;;;;4936184;29;20786;-75
2024/03/17 08:42:20;;;;;;;13.53;7.50;;;;;;;;;;4931383;29;20427;-75
2024/03/17 08:44:48;;;;;;;15.70;8.67;;;;;;;;;;4932988;29;20479;-75
2024/03/17 08:47:14;;;;;;;10.40;6.37;;;;;;;;;;4932594;29;20430;-75
2024/03/17 08:49:40;;;;;;;13.07;7.47;;;;;;;;;;4928064;29;20472;-76
2024/03/17 08:52:07;;;;;;;8.50;5.77;;;;;;;;;;4930538;29;20446;-75
2024/03/17 08:54:33;;;;;;;10.70;6.03;;;;;;;;;;4952931;29;20402;-76
2024/03/17 08:56:59;;;;;;;11.40;6.30;;;;;;;;;;4944603;29;20433;-75
2024/03/17 08:59:25;;;;;;;9.90;6.07;;;;;;;;;;4935735;29;20410;-76
2024/03/17 09:01:51;;;;;;;11.10;6.30;;;;;;;;;;4930133;29;20422;-76
2024/03/17 09:04:17;;;;;;;12.07;7.00;;;;;;;;;;4916159;29;20415;-76
2024/03/17 09:06:43;;;;;;;9.53;6.20;;;;;;;;;;4915755;29;20434;-76
2024/03/17 09:09:09;;;;;;;9.40;6.40;;;;;;;;;;4914599;29;20466;-76
2024/03/17 09:11:35;;;;;;;9.40;6.27;;;;;;;;;;4917354;29;20959;-77
2024/03/17 09:14:01;;;;;;;10.60;5.93;;;;;;;;;;4934864;29;20953;-76
2024/03/17 09:16:28;;;;;;;14.60;6.43;;;;;;;;;;4934419;29;20945;-76
2024/03/17 09:18:54;;;;;;;9.23;6.40;;;;;;;;;;4934047;29;20488;-76
2024/03/17 09:21:20;;;;;;;10.60;6.37;;;;;;;;;;4934302;29;20453;-76
2024/03/17 09:23:46;;;;;;;9.90;5.53;;;;;;;;;;4934661;29;20833;-76
2024/03/17 09:26:14;;;;;;;9.23;6.10;;;;;;;;;;4934266;29;20993;-76
2024/03/17 09:28:39;;;;;;;10.40;5.70;;;;;;;;;;4934295;29;20828;-76
2024/03/17 09:31:07;;;;;;;7.23;4.93;;;;;;;;;;4934291;29;20413;-76
2024/03/17 09:33:34;;;;;;;10.60;5.90;;;;;;;;;;4934634;29;20410;-76
2024/03/17 09:36:00;;;;;;;8.43;5.40;;;;;;;;;;4934286;29;20434;-75
2024/03/17 09:38:27;;;;;;;9.60;5.50;;;;;;;;;;4917390;29;20957;-75
2024/03/17 09:40:54;;;;;;;7.80;5.40;;;;;;;;;;4934002;29;20422;-76
2024/03/17 09:43:21;;;;;;;10.50;5.13;;;;;;;;;;4917357;29;20921;-76
2024/03/17 09:45:47;;;;;;;12.70;5.43;;;;;;;;;;4934123;29;20489;-76
2024/03/17 09:48:17;;;;;;;8.40;5.10;;;;;;;;;;4916765;29;20465;-76
2024/03/17 09:50:45;;;;;;;8.93;5.37;;;;;;;;;;4934226;29;20835;-76
2024/03/17 09:53:17;;;;;;;13.70;5.50;;;;;;;;;;4934175;29;20480;-76
2024/03/17 09:55:43;;;;;;;8.93;6.30;;;;;;;;;;4934196;29;20413;-75
2024/03/17 09:58:17;;;;;;;9.00;6.10;;;;;;;;;;4934149;29;20488;-76
2024/03/17 10:00:43;;;;;;;9.60;6.53;;;;;;;;;;4934603;29;20907;-76
2024/03/17 10:03:09;;;;;;;12.37;6.73;;;;;;;;;;4937105;29;20413;-76
2024/03/17 10:05:35;;;;;;;9.67;7.10;;;;;;;;;;4937757;29;20426;-76
2024/03/17 10:08:02;;;;;;;12.30;7.37;;;;;;;;;;4933092;29;20988;-76
2024/03/17 10:10:28;;;;;;;9.93;6.70;;;;;;;;;;4919196;29;20418;-76
2024/03/17 10:12:54;;;;;;;7.70;6.03;;;;;;;;;;4919031;29;20418;-76
2024/03/17 10:15:21;;;;;;;11.37;7.10;;;;;;;;;;4917813;29;20485;-76
2024/03/17 10:17:47;;;;;;;10.30;6.77;;;;;;;;;;4927208;29;20469;-76
2024/03/17 10:20:17;;;;;;;11.37;7.57;;;;;;;;;;4937715;29;20504;-76
2024/03/17 10:23:01;;;;;;;10.63;6.20;;;;;;;;;;4920055;29;20956;-76
2024/03/17 10:25:27;;;;;;;9.00;6.07;;;;;;;;;;4938089;29;20425;-76
2024/03/17 10:27:54;;;;;;;9.43;6.30;;;;;;;;;;4933485;29;20470;-74
2024/03/17 10:30:21;;;;;;;7.50;5.73;;;;;;;;;;4918290;29;20427;-74
2024/03/17 10:32:53;;;;;;;12.73;5.97;;;;;;;;;;4921501;29;20416;-73
2024/03/17 10:35:32;;;;;;;9.70;5.70;;;;;;;;;;4919870;29;20421;-75
2024/03/17 10:37:59;;;;;;;13.27;6.80;;;;;;;;;;4920083;29;20528;-77
2024/03/17 10:40:26;;;;;;;7.47;5.33;;;;;;;;;;4937405;29;20421;-74
2024/03/17 10:42:52;;;;;;;12.03;6.10;;;;;;;;;;4936922;29;20417;-74
2024/03/17 10:45:18;;;;;;;7.00;5.67;;;;;;;;;;4919105;29;20468;-76
2024/03/17 10:47:47;;;;;;;7.33;5.73;;;;;;;;;;4929334;29;20466;-76
2024/03/17 10:50:17;;;;;;;10.60;5.70;;;;;;;;;;4938087;29;20425;-75
2024/03/17 10:52:51;;;;;;;8.23;5.83;;;;;;;;;;4937667;29;20940;-75
2024/03/17 10:55:24;;;;;;;8.13;6.07;;;;;;;;;;4937550;29;20422;-74
2024/03/17 10:57:51;;;;;;;6.77;5.03;;;;;;;;;;4919977;29;20445;-74
2024/03/17 11:00:19;;;;;;;7.80;5.50;;;;;;;;;;4936925;29;20422;-75
2024/03/17 11:02:45;;;;;;;8.50;6.20;;;;;;;;;;4935411;29;20422;-74
2024/03/17 11:05:14;;;;;;;6.90;5.37;;;;;;;;;;4940451;29;20425;-76
2024/03/17 11:07:45;;;;;;;15.23;5.83;;;;;;;;;;4922373;29;20453;-75
2024/03/17 11:10:12;;;;;;;7.93;5.70;;;;;;;;;;4943361;29;20430;-74
2024/03/17 11:12:38;;;;;;;9.60;4.80;;;;;;;;;;4935563;29;20505;-75
2024/03/17 11:15:33;;;;;;;8.10;5.80;;;;;;;;;;4935862;29;20425;-76
2024/03/17 11:18:08;;;;;;;8.77;6.20;;;;;;;;;;4939718;29;20445;-75
2024/03/17 11:20:37;;;;;;;9.83;5.57;;;;;;;;;;4934156;29;20568;-75
2024/03/17 11:23:03;;;;;;;8.57;5.60;;;;;;;;;;4943604;29;20422;-73
2024/03/17 11:25:33;;;;;;;9.20;6.07;;;;;;;;;;4936667;29;20417;-74
2024/03/17 11:28:10;;;;;;;8.03;5.87;;;;;;;;;;4936528;29;20468;-75
2024/03/17 11:33:27;;;;;;;8.90;5.57;;;;;;;;;;4937721;29;20807;-80
2024/03/17 11:36:14;;;;;;;8.90;5.50;;;;;;;;;;4927129;29;20449;-78
2024/03/17 11:38:56;;;;;;;10.07;4.93;;;;;;;;;;4919086;29;20633;-74
2024/03/17 11:41:34;;;;;;;8.63;5.00;;;;;;;;;;4919006;29;21076;-75
2024/03/17 11:44:16;;;;;;;8.37;5.30;;;;;;;;;;4912346;29;20445;-79
2024/03/17 11:46:45;;;;;;;9.20;4.90;;;;;;;;;;4914935;29;20448;-76
2024/03/17 11:49:18;;;;;;;8.40;5.13;;;;;;;;;;4935294;29;20477;-75
2024/03/17 11:51:46;;;;;;;10.17;4.83;;;;;;;;;;4935488;29;20491;-79
2024/03/17 11:54:19;;;;;;;8.30;4.80;;;;;;;;;;4919509;29;20551;-77
2024/03/17 11:56:52;;;;;;;8.43;4.50;;;;;;;;;;4917290;29;20749;-77
2024/03/17 11:59:19;;;;;;;7.73;5.33;;;;;;;;;;4942964;29;20940;-76
2024/03/17 12:01:49;;;;;;;7.33;4.77;;;;;;;;;;4934709;29;20810;-74
2024/03/17 12:04:15;;;;;;;7.57;4.40;;;;;;;;;;4916503;29;20421;-74
2024/03/17 12:06:48;;;;;;;7.57;4.90;;;;;;;;;;4933852;29;20513;-75
2024/03/17 12:09:18;;;;;;;9.33;5.17;;;;;;;;;;4934499;29;20473;-77
2024/03/17 12:11:45;;;;;;;9.17;5.23;;;;;;;;;;4910259;29;20451;-77
2024/03/17 12:14:21;;;;;;;7.13;4.37;;;;;;;;;;4912751;29;20423;-78
2024/03/17 12:16:48;;;;;;;6.40;4.70;;;;;;;;;;4935780;23;20515;-76
2024/03/17 12:19:21;;;;;;;6.10;4.73;;;;;;;;;;4935860;29;20438;-76
2024/03/17 12:21:51;;;;;;;7.90;4.77;;;;;;;;;;4945959;29;20421;-76
2024/03/17 12:24:19;;;;;;;8.10;4.43;;;;;;;;;;4943002;28;20417;-77
2024/03/17 12:26:46;;;;;;;9.30;5.20;;;;;;;;;;4945132;29;20447;-76
2024/03/17 12:29:22;;;;;;;9.03;4.57;;;;;;;;;;4939179;29;20806;-75
2024/03/17 12:31:49;;;;;;;12.13;5.30;;;;;;;;;;4938383;28;20916;-75
2024/03/17 12:34:15;;;;;;;7.60;5.10;;;;;;;;;;4934847;29;20502;-74
2024/03/17 12:36:41;;;;;;;7.90;4.93;;;;;;;;;;4934742;29;21034;-76
2024/03/17 12:39:11;;;;;;;8.80;4.90;;;;;;;;;;4941653;29;20425;-75
2024/03/17 12:41:37;;;;;;;8.00;4.60;;;;;;;;;;4952052;29;20432;-74
2024/03/17 12:44:03;;;;;;;6.87;4.37;;;;;;;;;;4943159;29;20422;-74
2024/03/17 12:46:29;;;;;;;6.83;5.00;;;;;;;;;;4941328;29;20441;-74
2024/03/17 12:49:01;;;;;;;6.90;4.43;;;;;;;;;;4940001;29;20483;-76
2024/03/17 12:51:27;;;;;;;8.43;4.90;;;;;;;;;;4937629;29;20436;-75
2024/03/17 12:54:12;;;;;;;8.47;4.90;;;;;;;;;;4940371;29;20532;-73
2024/03/17 13:02:13;;;;;;;9.30;4.13;;;;;;;;;;4932548;29;20445;-74
2024/03/17 13:04:39;;;;;;;7.03;4.70;;;;;;;;;;4931671;29;20417;-74
2024/03/17 13:07:12;;;;;;;9.40;5.37;;;;;;;;;;4935451;29;20941;-74
2024/03/17 13:09:38;;;;;;;10.30;5.30;;;;;;;;;;4935187;29;20504;-74
2024/03/17 13:12:15;;;;;;;9.70;5.03;;;;;;;;;;4932994;29;20925;-74
2024/03/17 13:14:41;;;;;;;7.40;4.90;;;;;;;;;;4925188;29;21055;-74
2024/03/17 13:17:07;;;;;;;11.73;4.97;;;;;;;;;;4936974;29;20461;-74
2024/03/17 13:19:36;;;;;;;9.47;5.23;;;;;;;;;;4936203;29;20418;-74
2024/03/17 13:22:02;;;;;;;6.80;5.13;;;;;;;;;;4934927;29;20433;-74
2024/03/17 13:24:27;;;;;;;10.13;5.13;;;;;;;;;;4935619;29;20905;-74
2024/03/17 13:26:56;;;;;;;5.50;5.00;;;;;;;;;;4931816;28;20811;-74
2024/03/17 13:29:22;;;;;;;7.40;5.23;;;;;;;;;;4933427;29;20472;-74
2024/03/17 13:31:48;;;;;;;10.20;5.77;;;;;;;;;;4932698;29;20414;-74
2024/03/17 13:34:13;;;;;;;8.53;4.77;;;;;;;;;;4934054;29;20418;-74
2024/03/17 13:36:39;;;;;;;7.20;5.20;;;;;;;;;;4935675;29;20580;-73
2024/03/17 13:39:09;;;;;;;13.40;5.50;;;;;;;;;;4938019;29;20480;-73
2024/03/17 13:41:35;;;;;;;11.37;4.87;;;;;;;;;;4937930;29;20474;-73
2024/03/17 13:44:01;;;;;;;5.90;4.30;;;;;;;;;;4937984;29;20811;-74
2024/03/17 13:46:27;;;;;;;7.53;4.50;;;;;;;;;;4935909;29;20453;-74
2024/03/17 13:48:53;;;;;;;7.07;4.73;;;;;;;;;;4937568;29;20559;-74
2024/03/17 13:51:19;;;;;;;8.67;4.20;;;;;;;;;;4937390;29;20414;-74
2024/03/17 13:53:45;;;;;;;8.00;4.80;;;;;;;;;;4937697;29;20421;-74
2024/03/17 13:56:12;;;;;;;8.20;5.30;;;;;;;;;;4936914;29;20417;-74
2024/03/17 13:58:39;;;;;;;6.90;4.50;;;;;;;;;;4937526;29;20936;-74
2024/03/17 14:01:04;;;;;;;7.63;4.40;;;;;;;;;;4937837;29;20424;-74
2024/03/17 14:03:32;;;;;;;9.10;4.77;;;;;;;;;;4937305;29;20414;-73
2024/03/17 14:05:58;;;;;;;6.80;4.90;;;;;;;;;;4937393;29;20468;-73
2024/03/17 14:08:25;;;;;;;5.70;3.57;;;;;;;;;;4937320;29;20497;-73
2024/03/17 14:10:51;;;;;;;8.27;4.70;;;;;;;;;;4937274;29;20761;-74
2024/03/17 14:13:17;;;;;;;6.47;4.00;;;;;;;;;;4937138;29;20410;-73
2024/03/17 14:15:43;;;;;;;7.03;4.27;;;;;;;;;;4937089;29;20414;-73
2024/03/17 14:18:09;;;;;;;6.20;4.27;;;;;;;;;;4936600;29;20516;-73
2024/03/17 14:20:37;;;;;;;5.30;4.43;;;;;;;;;;4937286;29;20913;-73
2024/03/17 14:23:03;;;;;;;7.90;4.30;;;;;;;;;;4937065;29;20406;-73
2024/03/17 14:25:29;;;;;;;11.67;4.03;;;;;;;;;;4936584;29;20414;-73
2024/03/17 14:27:55;;;;;;;6.67;4.27;;;;;;;;;;4936433;29;20943;-73
2024/03/17 14:30:21;;;;;;;8.40;4.03;;;;;;;;;;4936681;29;20933;-73
2024/03/17 14:32:48;;;;;;;12.50;5.00;;;;;;;;;;4936342;29;20417;-74
2024/03/17 14:35:20;;;;;;;7.27;4.27;;;;;;;;;;4936379;29;20867;-74
2024/03/17 14:37:49;;;;;;;6.00;4.17;;;;;;;;;;4936000;29;20980;-74